createdAt,value
2019-01-08T00:00:08.157Z,54.44
2019-01-08T00:09:11.359Z,53.47
2019-01-08T00:13:28.927Z,53.85
2019-01-08T00:22:29.957Z,53.92
2019-01-08T00:26:45.955Z,54.28
2019-01-08T00:31:01.959Z,53.98
2019-01-08T00:35:26.989Z,53.14
2019-01-08T00:39:45.127Z,53.31
2019-01-08T00:44:10.151Z,53.19
2019-01-08T00:48:28.016Z,52.74
2019-01-08T00:52:46.327Z,53.02
2019-01-08T00:57:04.933Z,54.95
2019-01-08T01:01:30.317Z,55.53
2019-01-08T01:05:48.063Z,55.73
2019-01-08T01:19:27.075Z,56.32
2019-01-08T01:23:43.056Z,55.12
2019-01-08T01:27:58.890Z,55.47
2019-01-08T01:32:04.574Z,56.24
2019-01-08T01:41:06.148Z,56.29
2019-01-08T01:45:23.731Z,57.00
2019-01-08T01:49:48.752Z,56.07
2019-01-08T01:54:04.734Z,55.73
2019-01-08T01:58:29.768Z,55.86
2019-01-08T02:02:47.369Z,56.66
2019-01-08T02:07:12.392Z,57.43
2019-01-08T02:11:30.403Z,57.35
2019-01-08T02:15:48.328Z,56.79
2019-01-08T02:20:13.347Z,57.12
2019-01-08T02:24:31.208Z,56.96
2019-01-08T02:28:56.229Z,58.03
2019-01-08T02:33:13.753Z,57.65
2019-01-08T02:37:31.457Z,57.40
2019-01-08T02:46:33.045Z,57.71
2019-01-08T02:50:50.865Z,58.19
2019-01-08T02:55:15.862Z,58.46
2019-01-08T02:59:34.018Z,58.31
2019-01-08T03:03:59.026Z,58.23
2019-01-08T03:08:16.682Z,58.30
2019-01-08T03:12:41.707Z,58.31
2019-01-08T03:16:59.263Z,59.54
2019-01-08T03:25:56.626Z,61.08
2019-01-08T03:30:21.638Z,60.96
2019-01-08T03:34:39.479Z,60.93
2019-01-08T03:38:57.110Z,62.11
2019-01-08T03:43:14.803Z,62.38
2019-01-08T03:47:39.833Z,62.53
2019-01-08T03:51:57.971Z,62.62
2019-01-08T03:56:22.977Z,62.61
2019-01-08T04:00:39.016Z,63.33
2019-01-08T04:05:14.847Z,63.57
2019-01-08T04:14:16.116Z,64.33
2019-01-08T04:18:32.110Z,65.10
2019-01-08T04:22:57.124Z,65.09
2019-01-08T04:27:14.983Z,64.33
2019-01-08T04:31:39.997Z,64.55
2019-01-08T04:35:57.797Z,64.74
2019-01-08T04:40:22.821Z,64.90
2019-01-08T04:44:40.700Z,65.09
2019-01-08T04:49:05.735Z,64.36
2019-01-08T04:53:23.773Z,64.38
2019-01-08T04:57:48.800Z,64.39
2019-01-08T05:02:06.810Z,63.96
2019-01-08T05:06:31.849Z,64.30
2019-01-08T05:10:47.845Z,63.95
2019-01-08T05:20:01.921Z,65.06
2019-01-08T05:24:26.947Z,65.18
2019-01-08T05:28:44.788Z,64.81
2019-01-08T05:33:09.815Z,65.01
2019-01-08T05:37:28.046Z,64.92
2019-01-08T05:41:53.068Z,65.36
2019-01-08T05:46:10.693Z,65.02
2019-01-08T05:50:28.659Z,64.93
2019-01-08T05:59:37.747Z,64.70
2019-01-08T06:03:55.248Z,64.40
2019-01-08T06:08:20.271Z,64.62
2019-01-08T06:12:38.034Z,64.42
2019-01-08T06:17:03.042Z,64.29
2019-01-08T06:21:20.743Z,64.23
2019-01-08T06:25:45.787Z,64.32
2019-01-08T06:30:03.500Z,63.85
2019-01-08T06:34:28.516Z,64.33
2019-01-08T06:38:46.138Z,64.10
2019-01-08T06:43:03.926Z,64.32
2019-01-08T06:47:30.274Z,64.25
2019-01-08T06:51:53.747Z,64.32
2019-01-08T07:00:55.414Z,63.32
2019-01-08T07:05:11.413Z,63.60
2019-01-08T07:09:36.416Z,63.59
2019-01-08T07:13:54.169Z,63.20
2019-01-08T07:18:19.230Z,63.43
2019-01-08T07:22:37.238Z,63.19
2019-01-08T07:26:54.837Z,62.78
2019-01-08T07:31:10.908Z,63.38
2019-01-08T07:35:28.441Z,62.57
2019-01-08T07:39:53.465Z,62.21
2019-01-08T07:44:11.150Z,62.58
2019-01-08T07:48:36.166Z,62.10
2019-01-08T07:52:54.130Z,61.73
2019-01-08T07:57:19.188Z,62.19
2019-01-08T08:01:35.204Z,62.94
2019-01-08T08:05:53.005Z,62.69
2019-01-08T08:14:54.592Z,61.19
2019-01-08T08:19:12.867Z,59.74
2019-01-08T08:28:07.776Z,59.68
2019-01-08T08:32:25.554Z,59.97
2019-01-08T08:36:43.131Z,60.53
2019-01-08T08:41:08.186Z,60.57
2019-01-08T08:45:25.855Z,60.40
2019-01-08T08:49:43.311Z,60.71
2019-01-08T08:54:01.449Z,59.88
2019-01-08T08:58:26.453Z,60.08
2019-01-08T09:02:44.669Z,60.44
2019-01-08T09:07:09.698Z,60.48
2019-01-08T09:11:27.072Z,61.26
2019-01-08T09:15:52.108Z,60.93
2019-01-08T09:20:10.271Z,60.54
2019-01-08T09:24:29.427Z,60.23
2019-01-08T09:28:47.327Z,60.04
2019-01-08T09:33:12.460Z,60.25
2019-01-08T09:37:30.281Z,60.10
2019-01-08T09:41:55.339Z,59.87
2019-01-08T09:46:13.247Z,59.21
2019-01-08T09:50:38.282Z,58.20
2019-01-08T09:54:55.839Z,57.65
2019-01-08T09:59:20.870Z,57.68
2019-01-08T10:03:39.129Z,57.54
2019-01-08T10:08:04.156Z,56.98
2019-01-08T10:12:21.801Z,56.73
2019-01-08T10:21:48.170Z,55.35
2019-01-08T10:26:06.250Z,54.40
2019-01-08T10:30:24.455Z,52.75
2019-01-08T10:34:42.689Z,50.10
2019-01-08T10:39:27.243Z,51.20
2019-01-08T10:43:43.162Z,51.72
2019-01-08T10:48:08.196Z,52.03
2019-01-08T10:52:25.996Z,51.88
2019-01-08T10:56:43.713Z,50.77
2019-01-08T11:01:08.740Z,51.10
2019-01-08T11:05:25.823Z,50.38
2019-01-08T11:09:50.877Z,50.10
2019-01-08T11:14:08.886Z,51.45
2019-01-08T11:18:26.484Z,50.50
2019-01-08T11:27:21.470Z,44.96
2019-01-08T11:31:39.222Z,45.11
2019-01-08T11:36:04.352Z,45.59
2019-01-08T11:40:22.474Z,45.12
2019-01-08T11:44:40.039Z,39.68
2019-01-08T11:49:05.076Z,36.22
2019-01-08T11:53:22.724Z,39.53
2019-01-08T11:57:47.769Z,41.18
2019-01-08T12:06:47.554Z,46.05
2019-01-08T12:11:12.555Z,48.38
2019-01-08T12:15:30.840Z,48.77
2019-01-08T12:19:55.864Z,46.26
2019-01-08T12:24:13.550Z,45.88
2019-01-08T12:28:38.590Z,46.24
2019-01-08T12:32:56.335Z,46.12
2019-01-08T12:37:21.368Z,37.75
2019-01-08T12:41:37.374Z,32.82
2019-01-08T12:46:02.424Z,32.19
2019-01-08T12:50:20.692Z,30.66
2019-01-08T12:54:45.723Z,31.19
2019-01-08T12:59:03.286Z,36.04
2019-01-08T13:03:28.310Z,39.06
2019-01-08T13:07:44.255Z,41.37
2019-01-08T13:12:09.427Z,43.21
2019-01-08T13:16:27.420Z,43.98
2019-01-08T13:20:52.469Z,44.84
2019-01-08T13:25:10.159Z,46.56
2019-01-08T13:29:27.888Z,47.99
2019-01-08T13:33:45.794Z,48.64
2019-01-08T13:38:10.827Z,49.62
2019-01-08T13:42:28.865Z,50.50
2019-01-08T13:51:23.849Z,52.35
2019-01-08T13:55:41.329Z,52.46
2019-01-08T13:59:59.185Z,53.40
2019-01-08T14:04:24.202Z,53.61
2019-01-08T14:08:42.415Z,53.08
2019-01-08T14:13:07.454Z,53.24
2019-01-08T14:17:25.311Z,53.29
2019-01-08T14:21:50.380Z,52.64
2019-01-08T14:26:08.534Z,54.15
2019-01-08T14:30:33.556Z,55.25
2019-01-08T14:34:52.325Z,54.78
2019-01-08T14:39:11.738Z,54.91
2019-01-08T14:43:29.646Z,54.85
2019-01-08T14:47:54.676Z,55.15
2019-01-08T14:52:12.685Z,54.53
2019-01-08T14:56:30.287Z,55.04
2019-01-08T15:00:55.334Z,54.64
2019-01-08T15:05:13.223Z,55.24
2019-01-08T15:09:38.313Z,55.05
2019-01-08T15:13:56.448Z,55.13
2019-01-08T15:18:14.022Z,54.63
2019-01-08T15:22:31.931Z,53.96
2019-01-08T15:26:57.028Z,54.16
2019-01-08T15:31:18.889Z,54.77
2019-01-08T15:36:28.002Z,54.68
2019-01-08T15:40:46.087Z,55.30
2019-01-08T15:45:03.891Z,54.48
2019-01-08T15:49:21.843Z,55.11
2019-01-08T15:53:46.951Z,55.59
2019-01-08T15:58:04.711Z,56.30
2019-01-08T16:02:29.748Z,55.89
2019-01-08T16:06:47.715Z,56.23
2019-01-08T16:15:48.994Z,56.47
2019-01-08T16:20:07.303Z,56.69
2019-01-08T16:29:01.405Z,56.51
2019-01-08T16:33:26.460Z,56.72
2019-01-08T16:37:42.459Z,56.89
2019-01-08T16:41:48.139Z,55.99
2019-01-08T16:45:53.809Z,56.19
2019-01-08T16:49:59.495Z,56.04
2019-01-08T16:54:05.227Z,54.83
2019-01-08T16:58:10.915Z,55.14
2019-01-08T17:02:17.235Z,54.88
2019-01-08T17:06:22.993Z,53.95
2019-01-08T17:10:28.825Z,53.95
2019-01-08T17:14:34.522Z,53.71
2019-01-08T17:18:40.214Z,53.84
2019-01-08T17:22:45.907Z,53.83
2019-01-08T17:26:51.637Z,53.82
2019-01-08T17:30:57.465Z,53.67
2019-01-08T17:35:03.146Z,54.09
2019-01-08T17:39:08.847Z,54.38
2019-01-08T17:43:14.527Z,55.27
2019-01-08T17:47:20.214Z,54.80
2019-01-08T17:51:25.899Z,54.40
2019-01-08T17:55:31.607Z,54.36
2019-01-08T17:59:37.438Z,54.68
2019-01-08T18:03:43.267Z,54.17
2019-01-08T18:07:48.935Z,54.27
2019-01-08T18:11:54.698Z,53.86
2019-01-08T18:16:00.385Z,53.59
2019-01-08T18:20:08.162Z,52.95
2019-01-08T18:24:14.021Z,53.28
2019-01-08T18:28:20.292Z,52.47
2019-01-08T18:32:25.984Z,53.35
2019-01-08T18:36:31.684Z,52.92
2019-01-08T18:40:37.351Z,53.09
2019-01-08T18:44:43.127Z,53.37
2019-01-08T18:48:48.823Z,54.19
2019-01-08T18:52:54.527Z,54.24
2019-01-08T18:57:00.207Z,54.03
2019-01-08T19:01:05.978Z,53.76
2019-01-08T19:05:11.955Z,53.40
2019-01-08T19:09:27.289Z,53.16
2019-01-08T19:13:32.993Z,53.29
2019-01-08T19:17:38.703Z,53.74
2019-01-08T19:21:44.400Z,53.03
2019-01-08T19:25:51.057Z,52.18
2019-01-08T19:29:56.739Z,51.98
2019-01-08T19:34:09.016Z,52.11
2019-01-08T19:38:09.830Z,51.82
2019-01-08T19:42:15.607Z,53.26
2019-01-08T19:46:21.318Z,53.49
2019-01-08T19:50:27.650Z,52.57
2019-01-08T19:54:33.313Z,51.78
2019-01-08T19:58:39.017Z,51.94
2019-01-08T20:02:44.718Z,51.74
2019-01-08T20:06:50.523Z,51.37
2019-01-08T20:10:56.210Z,51.26
2019-01-08T20:15:01.889Z,49.91
2019-01-08T20:19:07.600Z,50.52
2019-01-08T20:23:13.504Z,50.87
2019-01-08T20:27:19.215Z,51.18
2019-01-08T20:31:25.014Z,51.03
2019-01-08T20:35:30.733Z,51.72
2019-01-08T20:39:36.416Z,50.96
2019-01-08T20:43:42.153Z,50.28
2019-01-08T20:47:47.844Z,50.70
2019-01-08T20:51:55.046Z,50.71
2019-01-08T20:56:00.818Z,50.17
2019-01-08T21:00:09.847Z,50.71
2019-01-08T21:04:15.544Z,49.68
2019-01-08T21:08:21.272Z,49.44
2019-01-08T21:12:26.946Z,49.18
2019-01-08T21:16:32.669Z,49.58
2019-01-08T21:20:38.462Z,50.10
2019-01-08T21:24:45.813Z,49.32
2019-01-08T21:28:51.513Z,50.11
2019-01-08T21:32:57.319Z,50.76
2019-01-08T21:37:03.005Z,51.59
2019-01-08T21:41:08.692Z,52.01
2019-01-08T21:45:14.406Z,51.38
2019-01-08T21:49:20.059Z,50.90
2019-01-08T21:53:25.780Z,51.91
2019-01-08T21:57:31.460Z,51.51
2019-01-08T22:01:37.149Z,51.16
2019-01-08T22:05:42.925Z,51.57
2019-01-08T22:09:48.680Z,51.73
2019-01-08T22:13:54.360Z,51.02
2019-01-08T22:18:00.143Z,52.04
2019-01-08T22:22:05.814Z,51.83
2019-01-08T22:26:11.867Z,51.51
2019-01-08T22:30:17.545Z,51.86
2019-01-08T22:34:23.304Z,51.20
2019-01-08T22:38:29.011Z,51.21
2019-01-08T22:42:34.711Z,50.68
2019-01-08T22:46:40.411Z,50.81
2019-01-08T22:50:55.028Z,50.60
2019-01-08T22:55:00.703Z,50.58
2019-01-08T22:59:06.457Z,50.13
2019-01-08T23:03:12.250Z,50.00
2019-01-08T23:07:17.922Z,49.94
2019-01-08T23:11:23.603Z,50.44
2019-01-08T23:15:29.352Z,50.56
2019-01-08T23:19:35.040Z,50.76
2019-01-08T23:23:40.715Z,50.93
2019-01-08T23:27:46.408Z,50.13
2019-01-08T23:31:52.091Z,51.48
2019-01-08T23:40:53.831Z,50.00
2019-01-08T23:45:10.020Z,51.50
2019-01-08T23:49:35.021Z,50.87
2019-01-08T23:53:52.820Z,52.31
2019-01-08T23:58:17.861Z,53.23
